sensor_id;sensor_type;location;lat;lon;timestamp;pressure;altitude;pressure_sealevel;temperature;humidity
72210;BME280;60113;48.762;12.302;2024-03-08T00:00:26;97341.25;;;-3.82;91.46
72210;BME280;60113;48.762;12.302;2024-03-08T00:02:52;97345.59;;;-3.87;91.24
72210;BME280;60113;48.762;12.302;2024-03-08T00:05:19;97342.22;;;-3.88;91.51
72210;BME280;60113;48.762;12.302;2024-03-08T00:07:45;97343.00;;;-3.86;91.64
72210;BME280;60113;48.762;12.302;2024-03-08T00:10:11;97334.47;;;-3.86;91.97
72210;BME280;60113;48.762;12.302;2024-03-08T00:12:42;97335.31;;;-3.86;92.02
72210;BME280;60113;48.762;12.302;2024-03-08T00:15:09;97331.06;;;-3.87;92.50
72210;BME280;60113;48.762;12.302;2024-03-08T00:17:35;97335.34;;;-3.89;93.12
72210;BME280;60113;48.762;12.302;2024-03-08T00:20:00;97331.09;;;-3.90;93.99
72210;BME280;60113;48.762;12.302;2024-03-08T00:22:25;97326.84;;;-3.91;95.23
72210;BME280;60113;48.762;12.302;2024-03-08T00:24:51;97324.28;;;-3.91;94.73
72210;BME280;60113;48.762;12.302;2024-03-08T00:27:16;97321.72;;;-3.91;94.09
72210;BME280;60113;48.762;12.302;2024-03-08T00:29:42;97319.19;;;-3.93;93.76
72210;BME280;60113;48.762;12.302;2024-03-08T00:32:07;97320.88;;;-3.92;93.81
72210;BME280;60113;48.762;12.302;2024-03-08T00:34:36;97318.22;;;-3.87;94.31
72210;BME280;60113;48.762;12.302;2024-03-08T00:37:04;97316.41;;;-3.80;94.47
72210;BME280;60113;48.762;12.302;2024-03-08T00:39:30;97311.22;;;-3.77;94.23
72210;BME280;60113;48.762;12.302;2024-03-08T00:41:56;97310.31;;;-3.74;94.22
72210;BME280;60113;48.762;12.302;2024-03-08T00:44:21;97311.09;;;-3.71;95.12
72210;BME280;60113;48.762;12.302;2024-03-08T00:46:47;97308.50;;;-3.69;95.19
72210;BME280;60113;48.762;12.302;2024-03-08T00:49:13;97298.25;;;-3.69;93.73
72210;BME280;60113;48.762;12.302;2024-03-08T00:51:38;97297.41;;;-3.71;92.96
72210;BME280;60113;48.762;12.302;2024-03-08T00:54:04;97293.22;;;-3.75;94.58
72210;BME280;60113;48.762;12.302;2024-03-08T00:56:29;97296.66;;;-3.78;94.49
72210;BME280;60113;48.762;12.302;2024-03-08T00:58:55;97300.94;;;-3.77;95.01
72210;BME280;60113;48.762;12.302;2024-03-08T01:01:20;97297.47;;;-3.74;95.13
72210;BME280;60113;48.762;12.302;2024-03-08T01:03:45;97292.31;;;-3.74;95.33
72210;BME280;60113;48.762;12.302;2024-03-08T01:06:11;97288.88;;;-3.73;94.26
72210;BME280;60113;48.762;12.302;2024-03-08T01:08:37;97284.63;;;-3.74;94.38
72210;BME280;60113;48.762;12.302;2024-03-08T01:11:08;97275.22;;;-3.75;93.79
72210;BME280;60113;48.762;12.302;2024-03-08T01:13:34;97273.53;;;-3.78;93.56
72210;BME280;60113;48.762;12.302;2024-03-08T01:15:59;97273.59;;;-3.81;94.07
72210;BME280;60113;48.762;12.302;2024-03-08T01:18:25;97265.97;;;-3.86;94.65
72210;BME280;60113;48.762;12.302;2024-03-08T01:20:50;97264.28;;;-3.87;94.77
72210;BME280;60113;48.762;12.302;2024-03-08T01:23:15;97259.09;;;-3.84;95.26
72210;BME280;60113;48.762;12.302;2024-03-08T01:25:41;97256.44;;;-3.78;98.67
72210;BME280;60113;48.762;12.302;2024-03-08T01:28:06;97254.63;;;-3.72;100.00
72210;BME280;60113;48.762;12.302;2024-03-08T01:30:32;97251.94;;;-3.66;100.00
72210;BME280;60113;48.762;12.302;2024-03-08T01:32:59;97247.50;;;-3.58;100.00
72210;BME280;60113;48.762;12.302;2024-03-08T01:35:24;97254.16;;;-3.47;100.00
72210;BME280;60113;48.762;12.302;2024-03-08T01:37:51;97235.19;;;-3.40;100.00
72210;BME280;60113;48.762;12.302;2024-03-08T01:40:17;97239.22;;;-3.28;100.00
72210;BME280;60113;48.762;12.302;2024-03-08T01:42:42;97235.59;;;-3.19;100.00
72210;BME280;60113;48.762;12.302;2024-03-08T01:45:08;97231.19;;;-3.12;100.00
72210;BME280;60113;48.762;12.302;2024-03-08T01:47:34;97233.69;;;-3.09;100.00
72210;BME280;60113;48.762;12.302;2024-03-08T01:50:01;97221.66;;;-3.07;100.00
72210;BME280;60113;48.762;12.302;2024-03-08T01:52:31;97219.88;;;-3.05;100.00
72210;BME280;60113;48.762;12.302;2024-03-08T01:54:59;97218.16;;;-3.05;100.00
72210;BME280;60113;48.762;12.302;2024-03-08T01:57:28;97207.81;;;-3.02;100.00
72210;BME280;60113;48.762;12.302;2024-03-08T01:59:53;97211.25;;;-3.01;100.00
72210;BME280;60113;48.762;12.302;2024-03-08T02:02:21;97206.91;;;-3.01;100.00
72210;BME280;60113;48.762;12.302;2024-03-08T02:04:47;97205.22;;;-3.00;100.00
72210;BME280;60113;48.762;12.302;2024-03-08T02:07:13;97202.63;;;-3.00;99.40
72210;BME280;60113;48.762;12.302;2024-03-08T02:09:38;97204.31;;;-2.99;99.93
72210;BME280;60113;48.762;12.302;2024-03-08T02:12:05;97194.84;;;-2.97;100.00
72210;BME280;60113;48.762;12.302;2024-03-08T02:14:30;97198.31;;;-2.98;99.38
72210;BME280;60113;48.762;12.302;2024-03-08T02:17:00;97198.25;;;-2.95;100.00
72210;BME280;60113;48.762;12.302;2024-03-08T02:19:25;97193.03;;;-2.92;100.00
72210;BME280;60113;48.762;12.302;2024-03-08T02:21:51;97198.16;;;-2.90;100.00
72210;BME280;60113;48.762;12.302;2024-03-08T02:24:16;97188.69;;;-2.90;99.65
72210;BME280;60113;48.762;12.302;2024-03-08T02:26:42;97194.66;;;-2.87;100.00
72210;BME280;60113;48.762;12.302;2024-03-08T02:29:08;97187.75;;;-2.85;100.00
72210;BME280;60113;48.762;12.302;2024-03-08T02:31:34;97182.44;;;-2.78;100.00
72210;BME280;60113;48.762;12.302;2024-03-08T02:33:59;97176.31;;;-2.73;100.00
72210;BME280;60113;48.762;12.302;2024-03-08T02:36:24;97168.31;;;-2.61;100.00
72210;BME280;60113;48.762;12.302;2024-03-08T02:38:50;97172.41;;;-2.54;100.00
72210;BME280;60113;48.762;12.302;2024-03-08T02:41:15;97172.38;;;-2.52;100.00
72210;BME280;60113;48.762;12.302;2024-03-08T02:43:40;97176.56;;;-2.48;100.00
72210;BME280;60113;48.762;12.302;2024-03-08T02:46:06;97174.81;;;-2.46;100.00
72210;BME280;60113;48.762;12.302;2024-03-08T02:48:32;97170.44;;;-2.42;100.00
72210;BME280;60113;48.762;12.302;2024-03-08T02:50:58;97172.94;;;-2.39;100.00
72210;BME280;60113;48.762;12.302;2024-03-08T02:53:24;97172.00;;;-2.36;100.00
72210;BME280;60113;48.762;12.302;2024-03-08T02:55:49;97172.03;;;-2.38;100.00
72210;BME280;60113;48.762;12.302;2024-03-08T02:58:15;97168.53;;;-2.35;100.00
72210;BME280;60113;48.762;12.302;2024-03-08T03:00:40;97165.09;;;-2.34;100.00
72210;BME280;60113;48.762;12.302;2024-03-08T03:03:06;97165.09;;;-2.34;100.00
72210;BME280;60113;48.762;12.302;2024-03-08T03:05:32;97173.53;;;-2.29;100.00
72210;BME280;60113;48.762;12.302;2024-03-08T03:07:59;97162.41;;;-2.30;100.00
72210;BME280;60113;48.762;12.302;2024-03-08T03:10:24;97171.81;;;-2.29;100.00
72210;BME280;60113;48.762;12.302;2024-03-08T03:12:51;97163.31;;;-2.32;100.00
72210;BME280;60113;48.762;12.302;2024-03-08T03:15:17;97165.06;;;-2.33;100.00
72210;BME280;60113;48.762;12.302;2024-03-08T03:17:49;97161.66;;;-2.35;100.00
72210;BME280;60113;48.762;12.302;2024-03-08T03:20:18;97172.16;;;-2.43;100.00
72210;BME280;60113;48.762;12.302;2024-03-08T03:22:52;97159.47;;;-2.51;100.00
72210;BME280;60113;48.762;12.302;2024-03-08T03:25:19;97163.09;;;-2.58;97.72
72210;BME280;60113;48.762;12.302;2024-03-08T03:27:49;97157.25;;;-2.65;97.30
72210;BME280;60113;48.762;12.302;2024-03-08T03:30:15;97154.00;;;-2.71;96.37
72210;BME280;60113;48.762;12.302;2024-03-08T03:32:47;97148.09;;;-2.77;96.47
72210;BME280;60113;48.762;12.302;2024-03-08T03:35:14;97152.50;;;-2.82;96.61
72210;BME280;60113;48.762;12.302;2024-03-08T03:37:43;97154.41;;;-2.90;95.75
72210;BME280;60113;48.762;12.302;2024-03-08T03:40:11;97154.63;;;-2.99;94.89
72210;BME280;60113;48.762;12.302;2024-03-08T03:42:37;97154.78;;;-3.06;96.77
72210;BME280;60113;48.762;12.302;2024-03-08T03:45:05;97154.00;;;-3.09;97.13
72210;BME280;60113;48.762;12.302;2024-03-08T03:47:31;97147.28;;;-3.15;97.23
72210;BME280;60113;48.762;12.302;2024-03-08T03:49:56;97145.59;;;-3.18;97.71
72210;BME280;60113;48.762;12.302;2024-03-08T03:52:26;97157.63;;;-3.18;97.79
72210;BME280;60113;48.762;12.302;2024-03-08T03:54:52;97148.16;;;-3.18;98.65
72210;BME280;60113;48.762;12.302;2024-03-08T03:57:17;97152.41;;;-3.15;98.66
72210;BME280;60113;48.762;12.302;2024-03-08T03:59:44;97150.59;;;-3.11;100.00
72210;BME280;60113;48.762;12.302;2024-03-08T04:02:09;97150.59;;;-3.11;99.98
72210;BME280;60113;48.762;12.302;2024-03-08T04:04:34;97146.28;;;-3.09;100.00
72210;BME280;60113;48.762;12.302;2024-03-08T04:07:00;97148.00;;;-3.10;100.00
72210;BME280;60113;48.762;12.302;2024-03-08T04:09:27;97142.06;;;-3.12;99.39
72210;BME280;60113;48.762;12.302;2024-03-08T04:11:52;97148.09;;;-3.15;99.13
72210;BME280;60113;48.762;12.302;2024-03-08T04:14:20;97145.56;;;-3.16;98.84
72210;BME280;60113;48.762;12.302;2024-03-08T04:16:46;97151.59;;;-3.17;99.42
72210;BME280;60113;48.762;12.302;2024-03-08T04:19:13;97139.63;;;-3.18;98.51
72210;BME280;60113;48.762;12.302;2024-03-08T04:21:38;97139.63;;;-3.18;99.35
72210;BME280;60113;48.762;12.302;2024-03-08T04:24:04;97133.59;;;-3.17;100.00
72210;BME280;60113;48.762;12.302;2024-03-08T04:26:30;97132.66;;;-3.15;100.00
72210;BME280;60113;48.762;12.302;2024-03-08T04:28:56;97136.06;;;-3.12;100.00
72210;BME280;60113;48.762;12.302;2024-03-08T04:31:22;97141.16;;;-3.11;100.00
72210;BME280;60113;48.762;12.302;2024-03-08T04:33:47;97136.91;;;-3.12;100.00
72210;BME280;60113;48.762;12.302;2024-03-08T04:36:13;97138.66;;;-3.14;100.00
72210;BME280;60113;48.762;12.302;2024-03-08T04:38:42;97132.75;;;-3.18;98.99
72210;BME280;60113;48.762;12.302;2024-03-08T04:41:08;97125.19;;;-3.26;98.19
72210;BME280;60113;48.762;12.302;2024-03-08T04:43:34;97127.13;;;-3.34;97.59
72210;BME280;60113;48.762;12.302;2024-03-08T04:45:59;97118.72;;;-3.42;97.85
72210;BME280;60113;48.762;12.302;2024-03-08T04:48:25;97117.94;;;-3.44;98.92
72210;BME280;60113;48.762;12.302;2024-03-08T04:50:53;97115.50;;;-3.50;98.01
72210;BME280;60113;48.762;12.302;2024-03-08T04:53:19;97112.97;;;-3.54;98.13
72210;BME280;60113;48.762;12.302;2024-03-08T04:55:45;97121.56;;;-3.55;98.48
72210;BME280;60113;48.762;12.302;2024-03-08T04:58:10;97125.09;;;-3.60;97.42
72210;BME280;60113;48.762;12.302;2024-03-08T05:00:35;97117.56;;;-3.68;97.79
72210;BME280;60113;48.762;12.302;2024-03-08T05:03:01;97114.19;;;-3.72;100.00
72210;BME280;60113;48.762;12.302;2024-03-08T05:05:26;97103.94;;;-3.72;100.00
72210;BME280;60113;48.762;12.302;2024-03-08T05:07:53;97122.75;;;-3.71;100.00
72210;BME280;60113;48.762;12.302;2024-03-08T05:10:19;97114.09;;;-3.67;100.00
72210;BME280;60113;48.762;12.302;2024-03-08T05:12:44;97106.25;;;-3.61;100.00
72210;BME280;60113;48.762;12.302;2024-03-08T05:15:10;97114.59;;;-3.49;100.00
72210;BME280;60113;48.762;12.302;2024-03-08T05:17:35;97116.16;;;-3.42;100.00
72210;BME280;60113;48.762;12.302;2024-03-08T05:20:01;97104.09;;;-3.39;100.00
72210;BME280;60113;48.762;12.302;2024-03-08T05:22:27;97104.09;;;-3.39;100.00
72210;BME280;60113;48.762;12.302;2024-03-08T05:24:53;97105.88;;;-3.42;100.00
72210;BME280;60113;48.762;12.302;2024-03-08T05:27:18;97096.53;;;-3.46;100.00
72210;BME280;60113;48.762;12.302;2024-03-08T05:29:43;97091.50;;;-3.51;100.00
72210;BME280;60113;48.762;12.302;2024-03-08T05:32:09;97097.63;;;-3.57;99.02
72210;BME280;60113;48.762;12.302;2024-03-08T05:34:35;97098.53;;;-3.59;100.00
72210;BME280;60113;48.762;12.302;2024-03-08T05:37:01;97093.44;;;-3.62;99.14
72210;BME280;60113;48.762;12.302;2024-03-08T05:39:27;97100.44;;;-3.68;100.00
72210;BME280;60113;48.762;12.302;2024-03-08T05:41:52;97092.81;;;-3.72;99.59
72210;BME280;60113;48.762;12.302;2024-03-08T05:44:18;97084.41;;;-3.79;99.91
72210;BME280;60113;48.762;12.302;2024-03-08T05:46:43;97091.34;;;-3.84;99.33
72210;BME280;60113;48.762;12.302;2024-03-08T05:49:09;97091.34;;;-3.84;99.64
72210;BME280;60113;48.762;12.302;2024-03-08T05:51:36;97098.19;;;-3.83;99.81
72210;BME280;60113;48.762;12.302;2024-03-08T05:54:03;97103.31;;;-3.83;98.94
72210;BME280;60113;48.762;12.302;2024-03-08T05:56:33;97091.38;;;-3.86;98.70
72210;BME280;60113;48.762;12.302;2024-03-08T05:58:59;97093.06;;;-3.83;99.33
72210;BME280;60113;48.762;12.302;2024-03-08T06:01:25;97098.97;;;-3.81;100.00
72210;BME280;60113;48.762;12.302;2024-03-08T06:03:52;97094.72;;;-3.82;99.49
72210;BME280;60113;48.762;12.302;2024-03-08T06:06:21;97096.47;;;-3.84;98.79
72210;BME280;60113;48.762;12.302;2024-03-08T06:08:47;97097.28;;;-3.82;99.41
72210;BME280;60113;48.762;12.302;2024-03-08T06:11:15;97080.94;;;-3.78;100.00
72210;BME280;60113;48.762;12.302;2024-03-08T06:13:40;97082.63;;;-3.75;100.00
72210;BME280;60113;48.762;12.302;2024-03-08T06:16:06;97082.56;;;-3.72;100.00
72210;BME280;60113;48.762;12.302;2024-03-08T06:18:34;97085.03;;;-3.68;99.62
72210;BME280;60113;48.762;12.302;2024-03-08T06:21:05;97078.97;;;-3.65;99.44
72210;BME280;60113;48.762;12.302;2024-03-08T06:23:34;97079.75;;;-3.61;99.40
72210;BME280;60113;48.762;12.302;2024-03-08T06:26:04;97084.78;;;-3.57;100.00
72210;BME280;60113;48.762;12.302;2024-03-08T06:28:30;97091.53;;;-3.53;100.00
72210;BME280;60113;48.762;12.302;2024-03-08T06:30:55;97089.78;;;-3.50;99.95
72210;BME280;60113;48.762;12.302;2024-03-08T06:33:21;97092.28;;;-3.47;99.21
72210;BME280;60113;48.762;12.302;2024-03-08T06:35:46;97091.31;;;-3.42;100.00
72210;BME280;60113;48.762;12.302;2024-03-08T06:38:11;97083.50;;;-3.37;100.00
72210;BME280;60113;48.762;12.302;2024-03-08T06:40:37;97084.97;;;-3.27;100.00
72210;BME280;60113;48.762;12.302;2024-03-08T06:43:03;97086.44;;;-3.16;100.00
72210;BME280;60113;48.762;12.302;2024-03-08T06:45:31;97081.00;;;-3.04;100.00
72210;BME280;60113;48.762;12.302;2024-03-08T06:47:57;97084.91;;;-2.87;100.00
72210;BME280;60113;48.762;12.302;2024-03-08T06:50:22;97089.50;;;-2.65;100.00
72210;BME280;60113;48.762;12.302;2024-03-08T06:52:47;97081.19;;;-2.42;100.00
72210;BME280;60113;48.762;12.302;2024-03-08T06:55:18;97079.69;;;-2.17;100.00
72210;BME280;60113;48.762;12.302;2024-03-08T06:57:43;97072.06;;;-1.90;100.00
72210;BME280;60113;48.762;12.302;2024-03-08T07:00:09;97080.75;;;-1.64;100.00
72210;BME280;60113;48.762;12.302;2024-03-08T07:02:44;97073.25;;;-1.42;100.00
72210;BME280;60113;48.762;12.302;2024-03-08T07:05:11;97076.94;;;-1.22;100.00
72210;BME280;60113;48.762;12.302;2024-03-08T07:07:36;97065.94;;;-1.00;100.00
72210;BME280;60113;48.762;12.302;2024-03-08T07:10:02;97071.28;;;-0.79;100.00
72210;BME280;60113;48.762;12.302;2024-03-08T07:12:28;97064.66;;;-0.61;100.00
72210;BME280;60113;48.762;12.302;2024-03-08T07:14:54;97058.06;;;-0.44;100.00
72210;BME280;60113;48.762;12.302;2024-03-08T07:17:19;97054.06;;;-0.28;100.00
72210;BME280;60113;48.762;12.302;2024-03-08T07:19:45;97062.91;;;-0.09;100.00
72210;BME280;60113;48.762;12.302;2024-03-08T07:22:10;97062.31;;;0.06;100.00
72210;BME280;60113;48.762;12.302;2024-03-08T07:24:36;97060.75;;;0.26;100.00
72210;BME280;60113;48.762;12.302;2024-03-08T07:27:05;97067.88;;;0.43;100.00
72210;BME280;60113;48.762;12.302;2024-03-08T07:29:31;97056.91;;;0.60;100.00
72210;BME280;60113;48.762;12.302;2024-03-08T07:31:56;97056.94;;;0.81;100.00
72210;BME280;60113;48.762;12.302;2024-03-08T07:34:28;97062.03;;;1.05;100.00
72210;BME280;60113;48.762;12.302;2024-03-08T07:36:57;97064.81;;;1.21;100.00
72210;BME280;60113;48.762;12.302;2024-03-08T07:39:22;97061.59;;;1.37;100.00
72210;BME280;60113;48.762;12.302;2024-03-08T07:41:49;97058.50;;;1.49;100.00
72210;BME280;60113;48.762;12.302;2024-03-08T07:44:18;97056.16;;;1.64;100.00
72210;BME280;60113;48.762;12.302;2024-03-08T07:46:43;97056.19;;;1.83;100.00
72210;BME280;60113;48.762;12.302;2024-03-08T07:49:09;97048.38;;;2.04;100.00
72210;BME280;60113;48.762;12.302;2024-03-08T07:51:36;97037.13;;;2.24;100.00
72210;BME280;60113;48.762;12.302;2024-03-08T07:54:02;97039.00;;;2.40;100.00
72210;BME280;60113;48.762;12.302;2024-03-08T07:56:30;97036.66;;;2.53;97.66
72210;BME280;60113;48.762;12.302;2024-03-08T07:58:55;97048.31;;;2.64;97.37
72210;BME280;60113;48.762;12.302;2024-03-08T08:01:21;97038.47;;;2.70;96.66
72210;BME280;60113;48.762;12.302;2024-03-08T08:03:47;97038.75;;;2.64;91.66
72210;BME280;60113;48.762;12.302;2024-03-08T08:06:15;97037.47;;;2.73;91.06
72210;BME280;60113;48.762;12.302;2024-03-08T08:08:43;97039.84;;;2.78;92.12
72210;BME280;60113;48.762;12.302;2024-03-08T08:11:09;97041.41;;;2.82;92.17
72210;BME280;60113;48.762;12.302;2024-03-08T08:13:35;97040.03;;;2.92;95.50
72210;BME280;60113;48.762;12.302;2024-03-08T08:16:02;97035.47;;;2.97;92.84
72210;BME280;60113;48.762;12.302;2024-03-08T08:18:28;97028.13;;;3.06;91.75
72210;BME280;60113;48.762;12.302;2024-03-08T08:20:57;97030.91;;;3.20;91.58
72210;BME280;60113;48.762;12.302;2024-03-08T08:23:23;97031.44;;;3.27;90.53
72210;BME280;60113;48.762;12.302;2024-03-08T08:25:48;97030.06;;;3.37;91.47
72210;BME280;60113;48.762;12.302;2024-03-08T08:28:18;97031.41;;;3.45;89.88
72210;BME280;60113;48.762;12.302;2024-03-08T08:30:47;97023.53;;;3.64;92.83
72210;BME280;60113;48.762;12.302;2024-03-08T08:33:14;97011.88;;;3.71;91.96
72210;BME280;60113;48.762;12.302;2024-03-08T08:35:40;97020.31;;;3.93;90.82
72210;BME280;60113;48.762;12.302;2024-03-08T08:38:05;97010.59;;;4.12;94.00
72210;BME280;60113;48.762;12.302;2024-03-08T08:40:35;97002.66;;;4.32;92.82
72210;BME280;60113;48.762;12.302;2024-03-08T08:43:02;97004.00;;;4.39;92.39
72210;BME280;60113;48.762;12.302;2024-03-08T08:45:32;97006.25;;;4.45;90.49
72210;BME280;60113;48.762;12.302;2024-03-08T08:47:58;96989.66;;;4.48;90.88
72210;BME280;60113;48.762;12.302;2024-03-08T08:50:25;96990.41;;;4.34;87.20
72210;BME280;60113;48.762;12.302;2024-03-08T08:52:52;96992.91;;;4.52;87.77
72210;BME280;60113;48.762;12.302;2024-03-08T08:55:18;96985.09;;;4.52;86.38
72210;BME280;60113;48.762;12.302;2024-03-08T08:57:46;96979.16;;;4.49;85.68
72210;BME280;60113;48.762;12.302;2024-03-08T09:00:13;96981.81;;;4.64;87.28
72210;BME280;60113;48.762;12.302;2024-03-08T09:02:40;96985.13;;;4.82;86.61
72210;BME280;60113;48.762;12.302;2024-03-08T09:05:06;96982.63;;;5.11;89.50
72210;BME280;60113;48.762;12.302;2024-03-08T09:07:33;96976.63;;;5.25;83.48
72210;BME280;60113;48.762;12.302;2024-03-08T09:10:02;96971.69;;;5.35;84.08
72210;BME280;60113;48.762;12.302;2024-03-08T09:12:28;96964.22;;;5.15;80.50
72210;BME280;60113;48.762;12.302;2024-03-08T09:14:53;96967.00;;;5.26;85.43
72210;BME280;60113;48.762;12.302;2024-03-08T09:17:20;96967.78;;;5.28;80.80
72210;BME280;60113;48.762;12.302;2024-03-08T09:19:48;96966.84;;;5.29;81.19
72210;BME280;60113;48.762;12.302;2024-03-08T09:22:14;96960.41;;;5.35;81.28
72210;BME280;60113;48.762;12.302;2024-03-08T09:24:39;96954.84;;;5.56;84.66
72210;BME280;60113;48.762;12.302;2024-03-08T09:27:05;96944.72;;;5.66;80.64
72210;BME280;60113;48.762;12.302;2024-03-08T09:29:30;96944.34;;;5.72;80.91
72210;BME280;60113;48.762;12.302;2024-03-08T09:31:56;96944.31;;;5.86;82.33
72210;BME280;60113;48.762;12.302;2024-03-08T09:34:22;96942.16;;;6.08;82.21
72210;BME280;60113;48.762;12.302;2024-03-08T09:36:49;96929.97;;;6.36;81.26
72210;BME280;60113;48.762;12.302;2024-03-08T09:39:16;96918.66;;;6.22;75.68
72210;BME280;60113;48.762;12.302;2024-03-08T09:41:45;96923.88;;;6.22;76.29
72210;BME280;60113;48.762;12.302;2024-03-08T09:44:17;96928.72;;;6.14;73.07
72210;BME280;60113;48.762;12.302;2024-03-08T09:46:43;96929.25;;;6.34;80.57
72210;BME280;60113;48.762;12.302;2024-03-08T09:49:11;96927.38;;;6.36;78.74
72210;BME280;60113;48.762;12.302;2024-03-08T09:51:38;96924.44;;;6.68;80.85
72210;BME280;60113;48.762;12.302;2024-03-08T09:54:06;96928.69;;;6.97;80.26
72210;BME280;60113;48.762;12.302;2024-03-08T09:56:37;96917.84;;;7.16;75.10
72210;BME280;60113;48.762;12.302;2024-03-08T09:59:05;96914.38;;;7.03;77.17
72210;BME280;60113;48.762;12.302;2024-03-08T10:01:31;96908.94;;;6.93;74.71
72210;BME280;60113;48.762;12.302;2024-03-08T10:03:57;96908.56;;;6.71;73.38
72210;BME280;60113;48.762;12.302;2024-03-08T10:06:23;96925.59;;;6.64;71.63
72210;BME280;60113;48.762;12.302;2024-03-08T10:08:49;96919.22;;;6.68;71.50
72210;BME280;60113;48.762;12.302;2024-03-08T10:11:17;96919.47;;;6.78;75.67
72210;BME280;60113;48.762;12.302;2024-03-08T10:13:44;96916.56;;;6.96;74.53
72210;BME280;60113;48.762;12.302;2024-03-08T10:16:12;96910.63;;;7.33;77.01
72210;BME280;60113;48.762;12.302;2024-03-08T10:18:37;96902.66;;;7.60;76.32
72210;BME280;60113;48.762;12.302;2024-03-08T10:21:07;96903.50;;;7.61;70.71
72210;BME280;60113;48.762;12.302;2024-03-08T10:23:35;96900.47;;;7.67;73.13
72210;BME280;60113;48.762;12.302;2024-03-08T10:26:14;96902.13;;;7.55;72.07
72210;BME280;60113;48.762;12.302;2024-03-08T10:28:50;96895.50;;;7.75;74.52
72210;BME280;60113;48.762;12.302;2024-03-08T10:31:16;96891.22;;;7.87;72.79
72210;BME280;60113;48.762;12.302;2024-03-08T10:33:42;96890.38;;;7.87;69.96
72210;BME280;60113;48.762;12.302;2024-03-08T10:36:08;96878.16;;;7.74;69.35
72210;BME280;60113;48.762;12.302;2024-03-08T10:38:36;96879.75;;;7.64;66.23
72210;BME280;60113;48.762;12.302;2024-03-08T10:41:03;96886.06;;;7.48;70.67
72210;BME280;60113;48.762;12.302;2024-03-08T10:43:33;96876.09;;;7.54;69.72
72210;BME280;60113;48.762;12.302;2024-03-08T10:49:12;96890.59;;;7.84;68.08
72210;BME280;60113;48.762;12.302;2024-03-08T10:51:40;96882.44;;;7.75;66.70
72210;BME280;60113;48.762;12.302;2024-03-08T10:54:09;96885.91;;;7.63;66.50
72210;BME280;60113;48.762;12.302;2024-03-08T10:56:35;96881.63;;;7.62;67.70
72210;BME280;60113;48.762;12.302;2024-03-08T10:59:01;96876.66;;;7.83;68.88
72210;BME280;60113;48.762;12.302;2024-03-08T11:01:27;96869.66;;;7.84;64.03
72210;BME280;60113;48.762;12.302;2024-03-08T11:03:52;96871.63;;;7.93;66.97
72210;BME280;60113;48.762;12.302;2024-03-08T11:06:29;96872.59;;;8.17;68.09
72210;BME280;60113;48.762;12.302;2024-03-08T11:08:55;96860.78;;;8.35;69.30
72210;BME280;60113;48.762;12.302;2024-03-08T11:14:00;96860.03;;;8.58;66.92
72210;BME280;60113;48.762;12.302;2024-03-08T11:18:58;96860.47;;;8.87;65.90
72210;BME280;60113;48.762;12.302;2024-03-08T11:21:30;96853.47;;;8.99;65.17
72210;BME280;60113;48.762;12.302;2024-03-08T11:24:13;96844.75;;;8.87;62.86
72210;BME280;60113;48.762;12.302;2024-03-08T11:26:40;96830.25;;;9.06;66.92
72210;BME280;60113;48.762;12.302;2024-03-08T11:32:04;96839.09;;;9.05;62.28
72210;BME280;60113;48.762;12.302;2024-03-08T11:34:30;96835.75;;;9.26;68.35
72210;BME280;60113;48.762;12.302;2024-03-08T11:36:56;96824.09;;;9.30;65.68
72210;BME280;60113;48.762;12.302;2024-03-08T11:39:22;96825.84;;;9.41;67.51
72210;BME280;60113;48.762;12.302;2024-03-08T11:41:49;96826.34;;;9.23;65.95
72210;BME280;60113;48.762;12.302;2024-03-08T11:44:14;96826.59;;;9.32;67.41
72210;BME280;60113;48.762;12.302;2024-03-08T11:46:42;96808.69;;;9.14;59.80
72210;BME280;60113;48.762;12.302;2024-03-08T11:49:12;96805.13;;;9.27;68.73
72210;BME280;60113;48.762;12.302;2024-03-08T11:51:38;96814.03;;;9.58;69.22
72210;BME280;60113;48.762;12.302;2024-03-08T11:54:04;96812.72;;;9.41;59.96
72210;BME280;60113;48.762;12.302;2024-03-08T11:56:31;96800.81;;;9.48;61.34
72210;BME280;60113;48.762;12.302;2024-03-08T11:58:57;96781.91;;;9.33;63.66
72210;BME280;60113;48.762;12.302;2024-03-08T12:01:23;96789.16;;;9.30;59.98
72210;BME280;60113;48.762;12.302;2024-03-08T12:03:56;96782.91;;;9.54;65.76
72210;BME280;60113;48.762;12.302;2024-03-08T12:06:26;96781.81;;;9.79;63.37
72210;BME280;60113;48.762;12.302;2024-03-08T12:08:52;96781.72;;;10.02;66.68
72210;BME280;60113;48.762;12.302;2024-03-08T12:11:21;96764.97;;;10.15;67.58
72210;BME280;60113;48.762;12.302;2024-03-08T12:13:49;96772.94;;;10.24;68.62
72210;BME280;60113;48.762;12.302;2024-03-08T12:16:17;96771.66;;;10.40;68.22
72210;BME280;60113;48.762;12.302;2024-03-08T12:18:51;96766.28;;;10.42;66.73
72210;BME280;60113;48.762;12.302;2024-03-08T12:21:17;96759.84;;;10.46;66.27
72210;BME280;60113;48.762;12.302;2024-03-08T12:23:46;96759.25;;;10.09;57.90
72210;BME280;60113;48.762;12.302;2024-03-08T12:26:24;96760.09;;;9.77;53.76
72210;BME280;60113;48.762;12.302;2024-03-08T12:28:51;96750.53;;;9.87;62.61
72210;BME280;60113;48.762;12.302;2024-03-08T12:31:17;96754.72;;;9.79;56.16
72210;BME280;60113;48.762;12.302;2024-03-08T12:33:52;96757.56;;;9.87;64.89
72210;BME280;60113;48.762;12.302;2024-03-08T12:36:19;96742.44;;;10.12;63.41
72210;BME280;60113;48.762;12.302;2024-03-08T12:38:48;96744.03;;;10.24;57.59
72210;BME280;60113;48.762;12.302;2024-03-08T12:41:17;96728.50;;;10.54;64.51
72210;BME280;60113;48.762;12.302;2024-03-08T12:43:44;96733.53;;;10.67;64.47
72210;BME280;60113;48.762;12.302;2024-03-08T12:46:20;96736.84;;;10.91;63.53
72210;BME280;60113;48.762;12.302;2024-03-08T12:48:46;96735.38;;;11.08;61.93
72210;BME280;60113;48.762;12.302;2024-03-08T12:51:16;96729.41;;;10.96;62.86
72210;BME280;60113;48.762;12.302;2024-03-08T12:53:42;96720.84;;;11.04;64.04
72210;BME280;60113;48.762;12.302;2024-03-08T12:56:11;96727.50;;;11.08;63.10
72210;BME280;60113;48.762;12.302;2024-03-08T12:58:37;96712.47;;;10.88;63.79